sensor_id;sensor_type;location;lat;lon;timestamp;pressure;altitude;pressure_sealevel;temperature;humidity
33731;BME280;22931;48.636;9.000;2024-01-27T16:51:22;97701.41;;;7.53;59.95
33731;BME280;22931;48.636;9.000;2024-01-27T16:56:30;97703.84;;;7.35;59.30
33731;BME280;22931;48.636;9.000;2024-01-27T17:01:40;97711.25;;;7.12;58.79
33731;BME280;22931;48.636;9.000;2024-01-27T17:06:50;97718.63;;;6.90;59.06
33731;BME280;22931;48.636;9.000;2024-01-27T17:11:58;97712.91;;;6.68;59.19
33731;BME280;22931;48.636;9.000;2024-01-27T17:17:06;97698.03;;;6.48;59.64
33731;BME280;22931;48.636;9.000;2024-01-27T17:22:16;97699.34;;;6.36;59.83
33731;BME280;22931;48.636;9.000;2024-01-27T17:27:24;97697.78;;;6.20;59.71
33731;BME280;22931;48.636;9.000;2024-01-27T17:32:32;97710.31;;;6.08;60.13
33731;BME280;22931;48.636;9.000;2024-01-27T17:37:42;97711.09;;;5.98;60.13
33731;BME280;22931;48.636;9.000;2024-01-27T17:42:50;97710.28;;;5.87;60.32
33731;BME280;22931;48.636;9.000;2024-01-27T17:47:58;97715.94;;;5.74;59.94
33731;BME280;22931;48.636;9.000;2024-01-27T17:53:08;97711.72;;;5.58;60.05
33731;BME280;22931;48.636;9.000;2024-01-27T17:58:19;97721.84;;;5.34;59.87
33731;BME280;22931;48.636;9.000;2024-01-27T18:03:26;97724.09;;;5.16;60.49
33731;BME280;22931;48.636;9.000;2024-01-27T18:08:37;97711.03;;;5.11;60.44
33731;BME280;22931;48.636;9.000;2024-01-27T18:13:44;97721.13;;;4.97;60.53
33731;BME280;22931;48.636;9.000;2024-01-27T18:18:54;97722.91;;;4.87;60.86
33731;BME280;22931;48.636;9.000;2024-01-27T18:24:06;97722.34;;;4.85;61.15
33731;BME280;22931;48.636;9.000;2024-01-27T18:29:14;97724.91;;;4.80;61.33
33731;BME280;22931;48.636;9.000;2024-01-27T18:34:22;97729.88;;;4.76;61.22
33731;BME280;22931;48.636;9.000;2024-01-27T18:39:32;97734.03;;;4.72;61.33
33731;BME280;22931;48.636;9.000;2024-01-27T18:44:40;97723.78;;;4.65;61.15
33731;BME280;22931;48.636;9.000;2024-01-27T18:49:48;97725.00;;;4.53;61.39
33731;BME280;22931;48.636;9.000;2024-01-27T18:54:58;97738.25;;;4.46;61.62
33731;BME280;22931;48.636;9.000;2024-01-27T19:00:06;97733.38;;;4.55;61.67
33731;BME280;22931;48.636;9.000;2024-01-27T19:05:14;97731.13;;;4.37;61.68
33731;BME280;22931;48.636;9.000;2024-01-27T19:10:26;97724.34;;;4.36;61.77
33731;BME280;22931;48.636;9.000;2024-01-27T19:15:34;97726.16;;;4.30;61.89
33731;BME280;22931;48.636;9.000;2024-01-27T19:20:42;97721.91;;;4.24;61.82
33731;BME280;22931;48.636;9.000;2024-01-27T19:25:52;97722.66;;;4.20;61.70
33731;BME280;22931;48.636;9.000;2024-01-27T19:31:00;97725.75;;;4.17;62.05
33731;BME280;22931;48.636;9.000;2024-01-27T19:36:07;97733.81;;;4.15;62.03
33731;BME280;22931;48.636;9.000;2024-01-27T19:41:19;97732.25;;;4.14;61.88
33731;BME280;22931;48.636;9.000;2024-01-27T19:46:27;97721.53;;;4.11;61.86
33731;BME280;22931;48.636;9.000;2024-01-27T19:51:41;97727.53;;;4.11;62.25
33731;BME280;22931;48.636;9.000;2024-01-27T19:56:52;97725.91;;;4.05;61.80
33731;BME280;22931;48.636;9.000;2024-01-27T20:02:03;97715.69;;;3.98;62.06
33731;BME280;22931;48.636;9.000;2024-01-27T20:07:11;97727.34;;;3.91;61.99
33731;BME280;22931;48.636;9.000;2024-01-27T20:12:21;97713.00;;;3.88;61.87
33731;BME280;22931;48.636;9.000;2024-01-27T20:17:29;97711.63;;;3.81;61.91
33731;BME280;22931;48.636;9.000;2024-01-27T20:22:36;97702.22;;;3.80;62.33
33731;BME280;22931;48.636;9.000;2024-01-27T20:27:47;97709.88;;;3.86;62.42
33731;BME280;22931;48.636;9.000;2024-01-27T20:32:59;97713.28;;;3.92;62.36
33731;BME280;22931;48.636;9.000;2024-01-27T20:38:07;97716.44;;;3.94;62.15
33731;BME280;22931;48.636;9.000;2024-01-27T20:43:18;97707.84;;;3.93;62.19
33731;BME280;22931;48.636;9.000;2024-01-27T20:48:31;97716.94;;;3.91;61.87
33731;BME280;22931;48.636;9.000;2024-01-27T20:53:40;97713.25;;;3.87;61.94
33731;BME280;22931;48.636;9.000;2024-01-27T20:59:00;97713.78;;;3.89;62.12
33731;BME280;22931;48.636;9.000;2024-01-27T21:04:36;97707.22;;;3.81;62.07
33731;BME280;22931;48.636;9.000;2024-01-27T21:29:04;97694.03;;;3.66;62.20
33731;BME280;22931;48.636;9.000;2024-01-27T21:40:15;97678.25;;;3.51;61.79
33731;BME280;22931;48.636;9.000;2024-01-27T21:45:30;97678.56;;;3.55;62.10
33731;BME280;22931;48.636;9.000;2024-01-27T22:10:00;97660.00;;;3.46;62.52
33731;BME280;22931;48.636;9.000;2024-01-27T22:16:14;97662.84;;;3.45;62.45
33731;BME280;22931;48.636;9.000;2024-01-27T22:45:41;97633.53;;;3.27;62.50
33731;BME280;22931;48.636;9.000;2024-01-27T22:50:53;97630.94;;;3.27;62.65
33731;BME280;22931;48.636;9.000;2024-01-27T22:56:14;97623.91;;;3.28;62.57
33731;BME280;22931;48.636;9.000;2024-01-27T23:01:33;97625.78;;;3.32;62.84
33731;BME280;22931;48.636;9.000;2024-01-27T23:06:41;97621.84;;;3.30;62.78
33731;BME280;22931;48.636;9.000;2024-01-27T23:11:48;97627.34;;;3.33;62.67
33731;BME280;22931;48.636;9.000;2024-01-27T23:16:59;97610.47;;;3.36;62.95
33731;BME280;22931;48.636;9.000;2024-01-27T23:22:06;97615.66;;;3.36;62.84
33731;BME280;22931;48.636;9.000;2024-01-27T23:27:15;97611.25;;;3.37;62.60
33731;BME280;22931;48.636;9.000;2024-01-27T23:32:25;97613.09;;;3.41;62.82
33731;BME280;22931;48.636;9.000;2024-01-27T23:37:33;97605.06;;;3.43;62.69
33731;BME280;22931;48.636;9.000;2024-01-27T23:42:42;97591.03;;;3.44;62.90
33731;BME280;22931;48.636;9.000;2024-01-27T23:47:53;97584.31;;;3.48;63.26
33731;BME280;22931;48.636;9.000;2024-01-27T23:53:00;97589.00;;;3.51;63.11
33731;BME280;22931;48.636;9.000;2024-01-27T23:58:13;97580.19;;;3.52;63.06
